createdAt,value
2023-04-01T00:00:09.381Z,93513.13
2023-04-01T00:02:38.053Z,93516.06
2023-04-01T00:05:11.519Z,93509.22
2023-04-01T00:07:43.857Z,93507.72
2023-04-01T00:10:15.492Z,93504.06
2023-04-01T00:12:44.529Z,93510.41
2023-04-01T00:15:14.506Z,93493.84
2023-04-01T00:17:43.013Z,93499.09
2023-04-01T00:20:15.316Z,93494.41
2023-04-01T00:22:43.896Z,93497.66
2023-04-01T00:25:12.649Z,93497.38
2023-04-01T00:27:41.241Z,93494.75
2023-04-01T00:30:13.959Z,93495.81
2023-04-01T00:32:42.536Z,93496.63
2023-04-01T00:35:13.549Z,93482.97
2023-04-01T00:37:42.024Z,93483.78
2023-04-01T00:40:25.150Z,93478.25
2023-04-01T00:42:53.654Z,93465.31
2023-04-01T00:45:42.026Z,93462.25
2023-04-01T00:48:16.934Z,93457.38
2023-04-01T00:50:52.880Z,93455.50
2023-04-01T00:53:23.535Z,93444.69
2023-04-01T00:56:04.972Z,93442.84
2023-04-01T00:58:40.572Z,93438.31
2023-04-01T01:01:11.103Z,93436.31
2023-04-01T01:03:39.739Z,93426.06
2023-04-01T01:06:31.122Z,93411.88
2023-04-01T01:09:21.894Z,93411.53
2023-04-01T01:11:59.951Z,93410.91
2023-04-01T01:14:43.695Z,93395.28
2023-04-01T01:17:22.984Z,93388.72
2023-04-01T01:20:33.045Z,93386.81
2023-04-01T01:23:57.412Z,93385.44
2023-04-01T01:26:56.486Z,93376.22
2023-04-01T01:29:53.824Z,93373.56
2023-04-01T01:32:51.292Z,93378.44
2023-04-01T01:35:27.982Z,93378.88
2023-04-01T01:38:02.082Z,93385.19
2023-04-01T01:40:34.310Z,93392.13
2023-04-01T01:43:12.243Z,93390.16
2023-04-01T01:45:49.658Z,93399.34
2023-04-01T01:48:20.903Z,93374.59
2023-04-01T01:50:52.479Z,93385.69
2023-04-01T01:53:21.003Z,93377.50
2023-04-01T01:55:50.300Z,93367.66
2023-04-01T01:58:29.459Z,93374.97
2023-04-01T02:01:02.122Z,93370.69
2023-04-01T02:03:36.721Z,93368.72
2023-04-01T02:06:11.765Z,93360.41
2023-04-01T02:08:45.950Z,93379.19
2023-04-01T02:11:45.186Z,93374.16
2023-04-01T02:14:23.962Z,93376.34
2023-04-01T02:16:57.644Z,93378.13
2023-04-01T02:19:36.420Z,93357.50
2023-04-01T02:22:12.691Z,93360.59
2023-04-01T02:24:44.217Z,93367.47
2023-04-01T02:27:13.535Z,93373.00
2023-04-01T02:29:42.203Z,93370.34
2023-04-01T02:32:12.421Z,93364.75
2023-04-01T02:34:41.647Z,93360.03
2023-04-01T02:37:13.049Z,93371.38
2023-04-01T02:39:43.720Z,93384.38
2023-04-01T02:42:12.619Z,93386.28
2023-04-01T02:44:41.145Z,93383.13
2023-04-01T02:47:11.298Z,93391.66
2023-04-01T02:49:39.791Z,93391.75
2023-04-01T02:52:08.320Z,93395.50
2023-04-01T02:54:38.268Z,93405.88
2023-04-01T02:57:06.879Z,93401.13
2023-04-01T02:59:35.705Z,93410.25
2023-04-01T03:02:04.200Z,93422.53
2023-04-01T03:04:32.637Z,93421.81
2023-04-01T03:07:01.128Z,93419.06
2023-04-01T03:09:30.585Z,93417.38
2023-04-01T03:12:00.389Z,93427.47
2023-04-01T03:15:19.216Z,93417.94
2023-04-01T03:17:50.841Z,93422.47
2023-04-01T03:20:20.395Z,93412.88
2023-04-01T03:22:49.008Z,93425.31
2023-04-01T03:25:18.673Z,93406.69
2023-04-01T03:27:48.419Z,93400.00
2023-04-01T03:30:17.032Z,93390.72
2023-04-01T03:32:45.638Z,93374.94
2023-04-01T03:35:14.189Z,93362.34
2023-04-01T03:37:42.876Z,93353.34
2023-04-01T03:40:12.943Z,93351.50
2023-04-01T03:42:41.503Z,93325.53
2023-04-01T03:45:13.005Z,93327.78
2023-04-01T03:47:41.875Z,93334.00
2023-04-01T03:50:11.643Z,93320.50
2023-04-01T03:52:41.058Z,93301.38
2023-04-01T03:55:10.194Z,93300.00
2023-04-01T03:57:38.766Z,93304.50
2023-04-01T04:00:10.771Z,93294.16
2023-04-01T04:02:39.279Z,93299.91
2023-04-01T04:05:09.039Z,93300.00
2023-04-01T04:07:37.809Z,93310.66
2023-04-01T04:10:07.895Z,93298.75
2023-04-01T04:12:36.432Z,93289.97
2023-04-01T04:15:05.588Z,93289.00
2023-04-01T04:17:35.474Z,93289.09
2023-04-01T04:20:04.853Z,93287.00
2023-04-01T04:22:58.738Z,93277.63
2023-04-01T04:25:33.234Z,93284.75
2023-04-01T04:28:01.903Z,93279.28
2023-04-01T04:30:30.407Z,93276.13
2023-04-01T04:33:00.278Z,93284.56
2023-04-01T04:35:28.995Z,93271.25
2023-04-01T04:37:57.440Z,93276.50
2023-04-01T04:40:25.920Z,93268.75
2023-04-01T04:42:54.507Z,93267.47
2023-04-01T04:45:23.050Z,93263.81
2023-04-01T04:47:51.841Z,93251.53
2023-04-01T04:50:21.766Z,93248.16
2023-04-01T04:53:16.292Z,93247.38
2023-04-01T04:55:49.210Z,93248.69
2023-04-01T04:58:18.969Z,93244.72
2023-04-01T05:00:48.480Z,93236.88
2023-04-01T05:03:41.686Z,93225.56
2023-04-01T05:06:15.275Z,93214.84
2023-04-01T05:08:44.543Z,93206.44
2023-04-01T05:11:17.207Z,93200.16
2023-04-01T05:13:54.196Z,93198.84
2023-04-01T05:16:23.388Z,93193.66
2023-04-01T05:18:51.925Z,93197.06
2023-04-01T05:21:21.741Z,93201.50
2023-04-01T05:23:50.267Z,93215.94
2023-04-01T05:26:18.670Z,93217.50
2023-04-01T05:28:47.134Z,93207.69
2023-04-01T05:31:15.733Z,93210.22
2023-04-01T05:33:44.195Z,93200.44
2023-04-01T05:36:16.102Z,93204.16
2023-04-01T05:38:46.924Z,93214.47
2023-04-01T05:41:16.286Z,93204.88
2023-04-01T05:43:45.283Z,93199.03
2023-04-01T05:46:13.838Z,93183.47
2023-04-01T05:48:42.337Z,93177.63
2023-04-01T05:51:15.906Z,93174.53
2023-04-01T05:53:46.320Z,93168.56
2023-04-01T05:56:15.068Z,93173.06
2023-04-01T05:58:43.740Z,93165.31
2023-04-01T06:01:16.207Z,93166.66
2023-04-01T06:04:15.529Z,93161.31
2023-04-01T06:06:44.636Z,93166.63
2023-04-01T06:09:54.282Z,93170.69
2023-04-01T06:12:43.193Z,93166.22
2023-04-01T06:15:28.408Z,93161.75
2023-04-01T06:18:41.981Z,93169.16
2023-04-01T06:21:35.363Z,93157.84
2023-04-01T06:24:26.885Z,93152.31
2023-04-01T06:27:09.789Z,93151.88
2023-04-01T06:29:55.200Z,93153.81
2023-04-01T06:33:15.874Z,93159.66
2023-04-01T06:36:17.129Z,93156.66
2023-04-01T06:39:12.929Z,93163.06
2023-04-01T06:42:35.133Z,93151.97
2023-04-01T06:45:21.229Z,93157.13
2023-04-01T06:48:12.993Z,93150.66
2023-04-01T06:50:57.383Z,93146.88
2023-04-01T06:53:37.867Z,93136.16
2023-04-01T06:56:13.192Z,93144.66
2023-04-01T06:58:51.553Z,93140.75
2023-04-01T07:01:28.491Z,93147.78
2023-04-01T07:04:03.082Z,93139.00
2023-04-01T07:06:38.460Z,93139.28
2023-04-01T07:09:14.185Z,93149.72
2023-04-01T07:12:17.516Z,93132.94
2023-04-01T07:14:50.987Z,93145.91
2023-04-01T07:17:24.177Z,93148.94
2023-04-01T07:20:00.656Z,93153.03
2023-04-01T07:22:34.264Z,93138.97
2023-04-01T07:25:13.193Z,93139.56
2023-04-01T07:27:41.903Z,93157.22
2023-04-01T07:30:18.671Z,93145.44
2023-04-01T07:32:53.843Z,93147.19
2023-04-01T07:35:32.756Z,93139.00
2023-04-01T07:38:30.369Z,93144.38
2023-04-01T07:41:12.615Z,93142.72
2023-04-01T07:44:23.730Z,93136.47
2023-04-01T07:47:08.323Z,93131.41
2023-04-01T07:49:55.085Z,93144.16
2023-04-01T07:52:38.080Z,93136.25
2023-04-01T07:55:16.482Z,93134.09
2023-04-01T07:57:58.200Z,93116.75
2023-04-01T08:00:44.801Z,93120.50
2023-04-01T08:03:33.803Z,93117.53
2023-04-01T08:06:16.484Z,93110.81
2023-04-01T08:09:12.899Z,93108.59
2023-04-01T08:12:05.701Z,93090.47
2023-04-01T08:14:49.703Z,93081.56
2023-04-01T08:17:28.818Z,93075.59
2023-04-01T08:20:18.564Z,93075.59
2023-04-01T08:22:53.301Z,93077.94
2023-04-01T08:25:27.189Z,93073.59
2023-04-01T08:28:04.221Z,93076.31
2023-04-01T08:30:45.020Z,93067.16
2023-04-01T08:33:40.302Z,93057.19
2023-04-01T08:36:15.047Z,93050.56
2023-04-01T08:38:46.992Z,93040.28
2023-04-01T08:41:50.287Z,93028.81
2023-04-01T08:45:08.822Z,93024.78
2023-04-01T08:47:54.928Z,93016.25
2023-04-01T08:50:45.783Z,93029.31
2023-04-01T08:53:27.142Z,93030.72
2023-04-01T08:56:14.523Z,93009.88
2023-04-01T08:59:11.162Z,93020.28
2023-04-01T09:02:06.333Z,93016.41
2023-04-01T09:05:03.244Z,93003.22
2023-04-01T09:08:02.861Z,92996.69
2023-04-01T09:11:15.358Z,93008.53
2023-04-01T09:14:25.471Z,93007.06
2023-04-01T09:17:43.432Z,92991.38
2023-04-01T09:20:57.658Z,92997.47
2023-04-01T09:24:42.174Z,92981.94
2023-04-01T09:27:28.501Z,92975.72
2023-04-01T09:30:48.605Z,92972.72
2023-04-01T09:34:12.361Z,92965.75
2023-04-01T09:36:48.050Z,92957.84
2023-04-01T09:39:38.329Z,92946.19
2023-04-01T09:43:04.559Z,92949.31
2023-04-01T09:45:50.440Z,92935.47
2023-04-01T09:48:41.042Z,92929.78
2023-04-01T09:51:36.956Z,92936.28
2023-04-01T09:54:22.947Z,92927.66
2023-04-01T09:57:42.142Z,92929.19
2023-04-01T10:00:57.758Z,92916.91
2023-04-01T10:04:27.409Z,92906.72
2023-04-01T10:07:53.923Z,92902.28
2023-04-01T10:11:32.614Z,92893.88
2023-04-01T10:14:39.029Z,92897.91
2023-04-01T10:17:40.681Z,92886.94
2023-04-01T10:20:48.179Z,92878.00
2023-04-01T10:23:34.639Z,92877.06
2023-04-01T10:27:09.329Z,92876.34
2023-04-01T10:30:28.412Z,92856.19
2023-04-01T10:33:56.286Z,92852.47
2023-04-01T10:36:56.995Z,92840.03
2023-04-01T10:40:33.884Z,92831.41
2023-04-01T10:43:44.598Z,92838.72
2023-04-01T10:47:03.881Z,92828.56
2023-04-01T10:50:00.777Z,92830.13
2023-04-01T10:53:13.520Z,92828.56
2023-04-01T10:56:36.372Z,92834.75
2023-04-01T11:00:14.056Z,92814.66
2023-04-01T11:03:41.675Z,92814.25
2023-04-01T11:07:13.043Z,92824.09
2023-04-01T11:10:45.748Z,92823.53
2023-04-01T11:13:52.389Z,92827.28
2023-04-01T11:17:08.097Z,92842.06
2023-04-01T11:20:26.644Z,92861.13
2023-04-01T11:23:20.664Z,92896.34
2023-04-01T11:26:27.244Z,92953.06
2023-04-01T11:29:44.374Z,92985.34
2023-04-01T11:32:37.428Z,92995.78
2023-04-01T11:35:47.736Z,93029.41
2023-04-01T11:38:48.086Z,93064.81
2023-04-01T11:41:32.740Z,93060.28
2023-04-01T11:44:20.086Z,93056.59
2023-04-01T11:47:21.601Z,93067.78
2023-04-01T11:50:14.537Z,93060.41
2023-04-01T11:53:28.937Z,93067.13
2023-04-01T11:56:14.171Z,93066.75
2023-04-01T11:59:45.260Z,93075.50
2023-04-01T12:02:26.298Z,93067.50
2023-04-01T12:05:24.325Z,93056.22
2023-04-01T12:08:13.037Z,93065.66
2023-04-01T12:10:55.871Z,93077.25
2023-04-01T12:13:45.443Z,93089.53
2023-04-01T12:16:50.878Z,93082.31
2023-04-01T12:19:31.707Z,93091.78
2023-04-01T12:22:28.516Z,93095.34
2023-04-01T12:25:16.585Z,93103.94
2023-04-01T12:28:01.767Z,93095.94
2023-04-01T12:30:59.114Z,93088.22
2023-04-01T12:34:03.058Z,93080.53
2023-04-01T12:37:01.761Z,93099.59
2023-04-01T12:39:53.393Z,93090.16
2023-04-01T12:42:46.622Z,93069.78
2023-04-01T12:45:49.594Z,93020.25
2023-04-01T12:48:50.352Z,93024.25
2023-04-01T12:52:09.481Z,93039.13
2023-04-01T12:55:37.321Z,93044.28
2023-04-01T12:59:01.110Z,93043.72
2023-04-01T13:01:54.415Z,93055.09
2023-04-01T13:05:03.578Z,93039.09
2023-04-01T13:08:18.190Z,93036.34
2023-04-01T13:11:10.816Z,93033.00
2023-04-01T13:14:29.156Z,93021.69
2023-04-01T13:17:24.058Z,93019.91
2023-04-01T13:20:05.789Z,93019.41
2023-04-01T13:22:53.964Z,93006.63
2023-04-01T13:25:36.374Z,92997.81
2023-04-01T13:28:17.270Z,92997.25
2023-04-01T13:30:59.756Z,92992.91
2023-04-01T13:34:07.791Z,92972.66
2023-04-01T13:36:53.312Z,92947.69
2023-04-01T13:39:36.403Z,92936.41
2023-04-01T13:42:26.418Z,92936.28
2023-04-01T13:45:04.672Z,92942.84
2023-04-01T13:48:09.942Z,92935.75
2023-04-01T13:51:19.846Z,92940.44
2023-04-01T13:54:19.369Z,92931.75
2023-04-01T13:57:07.439Z,92915.78
2023-04-01T14:00:09.863Z,92920.75
2023-04-01T14:02:59.212Z,92909.25
2023-04-01T14:06:02.460Z,92915.78
2023-04-01T14:08:51.105Z,92922.63
2023-04-01T14:11:29.566Z,92914.22
2023-04-01T14:14:12.228Z,92915.00
2023-04-01T14:17:08.960Z,92916.72
2023-04-01T14:20:04.450Z,92899.47
2023-04-01T14:23:19.792Z,92886.88
2023-04-01T14:26:35.274Z,92875.97
2023-04-01T14:29:24.208Z,92862.41
2023-04-01T14:32:08.808Z,92855.25
2023-04-01T14:34:56.921Z,92865.88
2023-04-01T14:38:08.652Z,92862.13
2023-04-01T14:40:57.087Z,92866.88
2023-04-01T14:44:00.942Z,92870.88
2023-04-01T14:47:14.036Z,92866.91
2023-04-01T14:49:48.259Z,92867.69
2023-04-01T14:52:27.198Z,92876.13
2023-04-01T14:54:59.721Z,92873.75
2023-04-01T14:57:32.046Z,92885.25
2023-04-01T15:00:11.932Z,92879.78
2023-04-01T15:03:00.952Z,92886.06
2023-04-01T15:05:41.176Z,92898.09
2023-04-01T15:08:20.264Z,92885.78
2023-04-01T15:11:17.597Z,92885.84
2023-04-01T15:14:27.625Z,92887.91
2023-04-01T15:17:24.926Z,92896.78
2023-04-01T15:20:34.945Z,92890.78
2023-04-01T15:23:21.857Z,92885.19
2023-04-01T15:26:24.672Z,92891.88
2023-04-01T15:29:10.520Z,92898.22
2023-04-01T15:32:02.133Z,92923.28
2023-04-01T15:34:42.563Z,93027.50
2023-04-01T15:37:25.085Z,93057.81
2023-04-01T16:08:14.633Z,93171.78
2023-04-01T16:11:10.968Z,93168.59
2023-04-01T16:13:56.672Z,93173.63
2023-04-01T16:16:49.326Z,93185.66
2023-04-01T16:19:49.961Z,93185.41
2023-04-01T16:23:01.208Z,93194.25
2023-04-01T16:25:39.517Z,93188.50
2023-04-01T16:28:26.726Z,93178.59
2023-04-01T16:31:05.704Z,93195.63
2023-04-01T16:33:49.924Z,93192.53
2023-04-01T16:36:30.538Z,93183.13
2023-04-01T16:39:37.345Z,93193.31
2023-04-01T16:42:45.489Z,93193.56
2023-04-01T16:45:34.969Z,93209.50
2023-04-01T16:48:14.492Z,93208.19
2023-04-01T16:50:54.479Z,93204.78
2023-04-01T16:53:42.619Z,93218.06
2023-04-01T16:56:22.594Z,93237.19
2023-04-01T16:59:10.956Z,93251.03
2023-04-01T17:01:50.092Z,93265.16
2023-04-01T17:04:34.218Z,93273.03
2023-04-01T17:07:20.308Z,93276.19
2023-04-01T17:10:08.103Z,93283.81
2023-04-01T17:12:50.022Z,93270.47
2023-04-01T17:15:31.910Z,93288.00
2023-04-01T17:18:11.281Z,93289.63
2023-04-01T17:20:50.724Z,93302.41
2023-04-01T17:23:32.111Z,93309.22
2023-04-01T17:26:22.883Z,93312.09
2023-04-01T17:29:00.598Z,93305.81
2023-04-01T17:32:03.857Z,93304.50
2023-04-01T17:35:05.525Z,93301.84
2023-04-01T17:37:52.469Z,93308.66
2023-04-01T17:40:53.665Z,93317.03
2023-04-01T17:43:38.840Z,93325.66
2023-04-01T17:46:33.635Z,93336.88
2023-04-01T17:49:21.306Z,93360.19
2023-04-01T17:52:02.678Z,93366.72
2023-04-01T17:54:41.177Z,93365.16
2023-04-01T17:57:34.632Z,93365.41
2023-04-01T18:00:22.325Z,93364.38
2023-04-01T18:04:12.840Z,93370.91
2023-04-01T18:07:57.155Z,93352.09
2023-04-01T18:10:33.523Z,93346.38
2023-04-01T18:13:54.567Z,93348.47
2023-04-01T18:16:53.952Z,93350.28
2023-04-01T18:19:41.866Z,93366.50
2023-04-01T18:22:23.132Z,93369.34
2023-04-01T18:25:06.930Z,93383.72
2023-04-01T18:27:42.649Z,93380.06
2023-04-01T18:30:21.382Z,93379.81
2023-04-01T18:32:59.276Z,93387.66
2023-04-01T18:35:50.410Z,93393.91
2023-04-01T18:38:27.730Z,93388.16
2023-04-01T18:41:16.433Z,93389.22
2023-04-01T18:44:04.084Z,93402.56
2023-04-01T18:46:41.807Z,93401.25
2023-04-01T18:49:23.379Z,93407.78
2023-04-01T18:51:58.937Z,93400.44
2023-04-01T18:54:33.857Z,93398.09
2023-04-01T18:57:10.185Z,93407.53
2023-04-01T18:59:44.604Z,93409.09
2023-04-01T19:02:33.397Z,93405.94
2023-04-01T19:05:14.713Z,93414.31
2023-04-01T19:07:50.492Z,93404.84
2023-04-01T19:10:29.653Z,93414.81
2023-04-01T19:13:19.030Z,93405.16
2023-04-01T19:16:01.276Z,93400.97
2023-04-01T19:18:53.747Z,93412.19
2023-04-01T19:21:29.907Z,93400.72
2023-04-01T19:24:28.808Z,93406.72
2023-04-01T19:27:09.215Z,93406.47
2023-04-01T19:29:58.647Z,93405.69
2023-04-01T19:32:43.621Z,93404.66
2023-04-01T19:35:26.419Z,93397.06
2023-04-01T19:38:04.156Z,93410.66
2023-04-01T19:40:49.850Z,93419.03
2023-04-01T19:43:41.554Z,93417.72
2023-04-01T19:46:22.038Z,93422.16
2023-04-01T19:49:17.318Z,93420.06
2023-04-01T19:51:54.962Z,93419.03
2023-04-01T19:54:37.833Z,93421.13
2023-04-01T19:57:25.664Z,93430.28
2023-04-01T20:00:04.312Z,93426.88
2023-04-01T20:03:04.147Z,93446.22
2023-04-01T20:05:53.066Z,93456.91
2023-04-01T20:08:36.069Z,93469.22
2023-04-01T20:11:20.262Z,93465.81
2023-04-01T20:14:29.215Z,93463.44
2023-04-01T20:17:16.296Z,93463.44
2023-04-01T20:19:51.125Z,93462.69
2023-04-01T20:22:33.963Z,93467.91
2023-04-01T20:25:15.764Z,93456.16
2023-04-01T20:27:53.004Z,93454.56
2023-04-01T20:30:59.928Z,93460.31
2023-04-01T20:34:03.725Z,93469.72
2023-04-01T20:36:40.619Z,93461.88
2023-04-01T20:40:12.331Z,93455.06
2023-04-01T20:43:09.838Z,93464.97
2023-04-01T20:45:52.011Z,93470.38
2023-04-01T20:48:54.972Z,93480.81
2023-04-01T20:51:28.102Z,93481.59
2023-04-01T20:54:17.369Z,93484.47
2023-04-01T20:56:58.370Z,93481.03
2023-04-01T21:00:05.716Z,93497.69
2023-04-01T21:02:59.872Z,93502.88
2023-04-01T21:05:57.910Z,93499.22
2023-04-01T21:08:46.135Z,93506.59
2023-04-01T21:11:28.450Z,93504.25
2023-04-01T21:14:31.011Z,93512.34
2023-04-01T21:17:15.462Z,93515.44
2023-04-01T21:20:21.129Z,93505.81
2023-04-01T21:23:12.212Z,93511.25
2023-04-01T21:26:03.378Z,93509.19
2023-04-01T21:28:42.648Z,93502.91
2023-04-01T21:31:44.285Z,93497.66
2023-04-01T21:34:45.140Z,93502.09
2023-04-01T21:37:48.963Z,93501.34
2023-04-01T21:40:46.868Z,93503.69
2023-04-01T21:43:51.049Z,93505.56
2023-04-01T21:46:53.426Z,93502.41
2023-04-01T21:50:08.899Z,93507.06
2023-04-01T21:53:17.351Z,93510.16
2023-04-01T21:56:48.030Z,93504.44
2023-04-01T22:00:17.386Z,93495.00
2023-04-01T22:03:28.581Z,93495.03
2023-04-01T22:06:20.954Z,93490.03
2023-04-01T22:09:05.293Z,93493.09
2023-04-01T22:11:50.463Z,93500.91
2023-04-01T22:14:32.623Z,93499.09
2023-04-01T22:17:05.409Z,93489.19
2023-04-01T22:19:47.591Z,93494.66
2023-04-01T22:22:24.338Z,93493.88
2023-04-01T22:25:09.505Z,93492.81
2023-04-01T22:27:48.446Z,93500.06
2023-04-01T22:30:43.369Z,93499.06
2023-04-01T22:33:22.738Z,93506.81
2023-04-01T22:36:24.724Z,93500.66
2023-04-01T22:39:50.735Z,93493.91
2023-04-01T22:43:07.345Z,93495.56
2023-04-01T22:46:34.770Z,93498.72
2023-04-01T22:49:17.469Z,93500.53
2023-04-01T22:51:52.636Z,93511.84
2023-04-01T22:54:31.530Z,93508.50
2023-04-01T22:57:06.500Z,93515.31
2023-04-01T22:59:44.268Z,93513.44
2023-04-01T23:02:19.367Z,93530.22
2023-04-01T23:04:56.298Z,93532.59
2023-04-01T23:07:47.759Z,93532.06
2023-04-01T23:10:25.886Z,93539.66
2023-04-01T23:12:57.648Z,93541.72
2023-04-01T23:15:29.779Z,93539.91
2023-04-01T23:18:23.012Z,93539.09
2023-04-01T23:21:14.540Z,93545.88
2023-04-01T23:23:57.684Z,93536.47
2023-04-01T23:26:36.370Z,93536.91
2023-04-01T23:29:07.082Z,93532.94
2023-04-01T23:31:40.787Z,93526.75
2023-04-01T23:34:30.044Z,93525.94
2023-04-01T23:37:04.930Z,93525.53
2023-04-01T23:39:37.567Z,93530.88
2023-04-01T23:42:09.736Z,93524.81
2023-04-01T23:44:39.339Z,93527.38
2023-04-01T23:47:17.970Z,93521.97
2023-04-01T23:49:50.453Z,93523.78
2023-04-01T23:52:25.390Z,93523.91
2023-04-01T23:54:58.589Z,93526.84
2023-04-01T23:57:33.482Z,93513.50
